GAPXH EGEO-EGPO

Flight info

Callsign GAPXH
Flight time 0h 48m
Altitude 8000
Route STN
Aircraft PA24/L-VGD/A

Departure

Time 2026-04-29 14:46
Airport Oban Airport (EGEO)

Arrival

Time 2026-04-29 15:34
Airport Stornoway Airport (EGPO)
Time Latitude Longitude Altitude Speed Heading
2026-04-29 14:25 56.46540 -5.39800 27 ft 0 kts 360°
2026-04-29 14:42 56.46549 -5.39807 27 ft 4 kts 305°
2026-04-29 14:42 56.46556 -5.39892 26 ft 7 kts 275°
2026-04-29 14:42 56.46535 -5.39962 26 ft 10 kts 184°
2026-04-29 14:42 56.46446 -5.39977 25 ft 16 kts 185°
2026-04-29 14:43 56.46324 -5.39999 23 ft 17 kts 188°
2026-04-29 14:43 56.46220 -5.39970 22 ft 19 kts 137°
2026-04-29 14:43 56.46142 -5.39861 24 ft 12 kts 147°
2026-04-29 14:43 56.46085 -5.39866 25 ft 7 kts 183°
2026-04-29 14:44 56.46030 -5.39926 22 ft 11 kts 228°
2026-04-29 14:44 56.46006 -5.39976 23 ft 0 kts 230°
2026-04-29 14:45 56.45998 -5.39994 23 ft 5 kts 229°
2026-04-29 14:45 56.46008 -5.40053 24 ft 5 kts 358°
2026-04-29 14:45 56.46025 -5.40052 24 ft 0 kts
2026-04-29 14:46 56.46109 -5.40038 21 ft 46 kts
2026-04-29 14:46 56.46585 -5.39936 131 ft 74 kts 356°
2026-04-29 14:46 56.47079 -5.39794 393 ft 76 kts 352°
2026-04-29 14:46 56.47607 -5.40015 696 ft 81 kts 335°
2026-04-29 14:47 56.48155 -5.40287 1018 ft 83 kts 342°
2026-04-29 14:47 56.48737 -5.40489 1216 ft 87 kts 353°
2026-04-29 14:47 56.49321 -5.40567 1493 ft 85 kts 352°
2026-04-29 14:47 56.49914 -5.40732 1678 ft 87 kts 352°
2026-04-29 14:48 56.50499 -5.40953 1924 ft 86 kts 343°
2026-04-29 14:48 56.51074 -5.41268 2132 ft 88 kts 345°
2026-04-29 14:48 56.51661 -5.41569 2415 ft 88 kts 344°
2026-04-29 14:48 56.52248 -5.41865 2656 ft 88 kts 341°
2026-04-29 14:49 56.52809 -5.42340 2874 ft 89 kts 331°
2026-04-29 14:49 56.53343 -5.42924 3143 ft 91 kts 328°
2026-04-29 14:49 56.53874 -5.43515 3382 ft 90 kts 328°
2026-04-29 14:49 56.54423 -5.44095 3596 ft 91 kts 331°
2026-04-29 14:50 56.54978 -5.44632 3814 ft 92 kts 332°
2026-04-29 14:50 56.55547 -5.45145 4032 ft 90 kts 335°
2026-04-29 14:50 56.56130 -5.45620 4227 ft 93 kts 337°
2026-04-29 14:50 56.56728 -5.46051 4447 ft 92 kts 340°
2026-04-29 14:51 56.57334 -5.46439 4644 ft 94 kts 343°
2026-04-29 14:51 56.57957 -5.46790 4851 ft 95 kts 345°
2026-04-29 14:51 56.58594 -5.47105 5062 ft 95 kts 348°
2026-04-29 14:51 56.59241 -5.47379 5256 ft 96 kts 350°
2026-04-29 14:52 56.59897 -5.47617 5457 ft 96 kts 352°
2026-04-29 14:52 56.60560 -5.47828 5638 ft 97 kts 354°
2026-04-29 14:52 56.61227 -5.48012 5831 ft 97 kts 355°
2026-04-29 14:52 56.61901 -5.48176 6020 ft 98 kts 357°
2026-04-29 14:53 56.62568 -5.48311 6221 ft 99 kts 358°
2026-04-29 14:53 56.63253 -5.48435 6422 ft 99 kts 359°
2026-04-29 14:53 56.63943 -5.48556 6633 ft 100 kts 359°
2026-04-29 14:53 56.64636 -5.48670 6845 ft 100 kts 360°
2026-04-29 14:54 56.65334 -5.48779 7025 ft 101 kts
2026-04-29 14:54 56.66035 -5.48887 7203 ft 101 kts
2026-04-29 14:54 56.66739 -5.49002 7359 ft 102 kts
2026-04-29 14:54 56.67449 -5.49111 7506 ft 103 kts
2026-04-29 14:55 56.68152 -5.49225 7648 ft 103 kts
2026-04-29 14:55 56.68868 -5.49356 7786 ft 104 kts 359°
2026-04-29 14:55 56.69591 -5.49502 7948 ft 105 kts 358°
2026-04-29 14:55 56.70319 -5.49667 8094 ft 106 kts 358°
2026-04-29 14:56 56.71053 -5.49844 8262 ft 107 kts 357°
2026-04-29 14:56 56.71791 -5.50046 8423 ft 108 kts 356°
2026-04-29 14:56 56.72587 -5.50262 8441 ft 121 kts 357°
2026-04-29 14:56 56.73458 -5.50466 8444 ft 133 kts 359°
2026-04-29 14:57 56.74420 -5.50656 8454 ft 144 kts 359°
2026-04-29 14:57 56.75426 -5.50859 8473 ft 150 kts 359°
2026-04-29 14:57 56.76450 -5.51100 8491 ft 148 kts 356°
2026-04-29 14:57 56.77470 -5.51399 8508 ft 149 kts 355°
2026-04-29 14:58 56.78487 -5.51765 8533 ft 150 kts 352°
2026-04-29 14:58 56.79515 -5.52196 8555 ft 152 kts 350°
2026-04-29 14:58 56.80544 -5.52666 8585 ft 153 kts 348°
2026-04-29 14:58 56.81582 -5.53183 8616 ft 155 kts 348°
2026-04-29 14:59 56.82611 -5.53728 8644 ft 154 kts 346°
2026-04-29 14:59 56.83627 -5.54303 8675 ft 155 kts 345°
2026-04-29 14:59 56.84646 -5.54920 8702 ft 153 kts 344°
2026-04-29 14:59 56.85656 -5.55555 8684 ft 155 kts 344°
2026-04-29 15:00 56.86692 -5.56194 8635 ft 158 kts 344°
2026-04-29 15:00 56.87751 -5.56838 8571 ft 163 kts 344°
2026-04-29 15:00 56.88837 -5.57473 8526 ft 165 kts 345°
2026-04-29 15:00 56.89933 -5.58095 8484 ft 164 kts 345°
2026-04-29 15:01 56.91017 -5.58739 8439 ft 165 kts 343°
2026-04-29 15:01 56.92111 -5.59408 8421 ft 166 kts 344°
2026-04-29 15:01 56.93177 -5.60041 8418 ft 163 kts 345°
2026-04-29 15:01 56.94260 -5.60644 8408 ft 162 kts 346°
2026-04-29 15:02 56.95336 -5.61220 8408 ft 160 kts 347°
2026-04-29 15:02 56.96403 -5.61756 8408 ft 159 kts 348°
2026-04-29 15:02 56.97479 -5.62277 8408 ft 159 kts 348°
2026-04-29 15:02 56.98551 -5.62761 8405 ft 158 kts 349°
2026-04-29 15:03 56.99624 -5.63243 8410 ft 160 kts 349°
2026-04-29 15:03 57.00713 -5.63691 8413 ft 161 kts 350°
2026-04-29 15:03 57.01800 -5.64150 8412 ft 160 kts 350°
2026-04-29 15:03 57.02866 -5.64590 8414 ft 158 kts 350°
2026-04-29 15:04 57.03942 -5.65039 8408 ft 159 kts 349°
2026-04-29 15:04 57.05018 -5.65508 8411 ft 159 kts 349°
2026-04-29 15:04 57.06100 -5.65948 8407 ft 159 kts 350°
2026-04-29 15:04 57.07176 -5.66399 8408 ft 158 kts 349°
2026-04-29 15:05 57.08247 -5.66862 8413 ft 158 kts 349°
2026-04-29 15:05 57.09322 -5.67324 8412 ft 158 kts 349°
2026-04-29 15:05 57.10394 -5.67800 8425 ft 159 kts 349°
2026-04-29 15:05 57.11453 -5.68252 8413 ft 159 kts 348°
2026-04-29 15:06 57.12524 -5.68728 8412 ft 158 kts 348°
2026-04-29 15:06 57.13592 -5.69201 8406 ft 157 kts 349°
2026-04-29 15:06 57.14654 -5.69666 8409 ft 157 kts 349°
2026-04-29 15:06 57.15715 -5.70129 8405 ft 156 kts 349°
2026-04-29 15:07 57.16769 -5.70596 8408 ft 155 kts 349°
2026-04-29 15:07 57.17820 -5.71062 8411 ft 155 kts 348°
2026-04-29 15:07 57.18871 -5.71527 8417 ft 156 kts 348°
2026-04-29 15:07 57.19929 -5.72005 8426 ft 158 kts 348°
2026-04-29 15:08 57.20992 -5.72464 8422 ft 159 kts 348°
2026-04-29 15:08 57.22059 -5.72907 8417 ft 157 kts 349°
2026-04-29 15:08 57.23129 -5.73374 8416 ft 159 kts 348°
2026-04-29 15:08 57.24205 -5.73846 8408 ft 158 kts 349°
2026-04-29 15:09 57.25264 -5.74315 8407 ft 156 kts 347°
2026-04-29 15:09 57.26314 -5.74830 8418 ft 156 kts 346°
2026-04-29 15:09 57.27369 -5.75342 8413 ft 157 kts 348°
2026-04-29 15:09 57.28430 -5.75800 8409 ft 156 kts 348°
2026-04-29 15:10 57.29488 -5.76267 8413 ft 156 kts 348°
2026-04-29 15:10 57.30528 -5.76730 8414 ft 156 kts 348°
2026-04-29 15:10 57.31584 -5.77201 8415 ft 156 kts 348°
2026-04-29 15:10 57.32637 -5.77675 8425 ft 156 kts 348°
2026-04-29 15:11 57.33689 -5.78152 8416 ft 156 kts 348°
2026-04-29 15:11 57.34742 -5.78631 8419 ft 156 kts 348°
2026-04-29 15:11 57.35804 -5.79117 8425 ft 158 kts 348°
2026-04-29 15:11 57.36880 -5.79604 8426 ft 160 kts 348°
2026-04-29 15:12 57.37960 -5.80085 8423 ft 160 kts 348°
2026-04-29 15:12 57.38675 -5.80404 8422 ft 159 kts 348°
2026-04-29 15:12 57.40093 -5.81052 8418 ft 158 kts 347°
2026-04-29 15:12 57.41160 -5.81535 8419 ft 158 kts 348°
2026-04-29 15:13 57.42237 -5.82024 8422 ft 160 kts 347°
2026-04-29 15:13 57.43314 -5.82521 8421 ft 159 kts 347°
2026-04-29 15:13 57.44385 -5.83005 8426 ft 158 kts 348°
2026-04-29 15:13 57.45465 -5.83495 8422 ft 160 kts 347°
2026-04-29 15:14 57.46544 -5.83986 8420 ft 160 kts 348°
2026-04-29 15:14 57.47607 -5.84464 8418 ft 159 kts 347°
2026-04-29 15:14 57.48680 -5.84949 8417 ft 158 kts 347°
2026-04-29 15:14 57.49747 -5.85428 8418 ft 158 kts 347°
2026-04-29 15:15 57.50813 -5.85913 8420 ft 158 kts 347°
2026-04-29 15:15 57.51884 -5.86397 8422 ft 159 kts 348°
2026-04-29 15:15 57.52953 -5.86869 8425 ft 157 kts 347°
2026-04-29 15:15 57.54018 -5.87342 8419 ft 157 kts 347°
2026-04-29 15:16 57.55077 -5.87823 8418 ft 157 kts 347°
2026-04-29 15:16 57.56136 -5.88307 8418 ft 156 kts 347°
2026-04-29 15:16 57.57176 -5.88784 8419 ft 156 kts 347°
2026-04-29 15:16 57.58228 -5.89265 8419 ft 156 kts 347°
2026-04-29 15:17 57.59280 -5.89745 8420 ft 156 kts 347°
2026-04-29 15:17 57.60330 -5.90225 8426 ft 156 kts 347°
2026-04-29 15:17 57.61380 -5.90707 8425 ft 156 kts 347°
2026-04-29 15:17 57.62433 -5.91193 8426 ft 156 kts 347°
2026-04-29 15:18 57.63484 -5.91679 8430 ft 156 kts 347°
2026-04-29 15:18 57.64532 -5.92162 8424 ft 155 kts 347°
2026-04-29 15:18 57.65568 -5.92641 8421 ft 155 kts 347°
2026-04-29 15:18 57.66611 -5.93122 8421 ft 154 kts 347°
2026-04-29 15:19 57.67654 -5.93601 8425 ft 154 kts 347°
2026-04-29 15:19 57.68693 -5.94075 8427 ft 154 kts 347°
2026-04-29 15:19 57.69732 -5.94554 8432 ft 154 kts 347°
2026-04-29 15:19 57.70767 -5.95029 8428 ft 153 kts 347°
2026-04-29 15:20 57.71806 -5.95503 8430 ft 153 kts 347°
2026-04-29 15:20 57.72842 -5.95979 8433 ft 153 kts 346°
2026-04-29 15:20 57.73862 -5.96445 8432 ft 153 kts 346°
2026-04-29 15:20 57.74897 -5.96920 8428 ft 153 kts 346°
2026-04-29 15:21 57.75933 -5.97396 8429 ft 153 kts 346°
2026-04-29 15:21 57.76967 -5.97873 8431 ft 153 kts 346°
2026-04-29 15:21 57.78001 -5.98352 8429 ft 153 kts 346°
2026-04-29 15:21 57.79035 -5.98830 8431 ft 153 kts 346°
2026-04-29 15:22 57.80069 -5.99306 8439 ft 153 kts 346°
2026-04-29 15:22 57.81086 -5.99774 8424 ft 148 kts 346°
2026-04-29 15:22 57.82072 -6.00230 8332 ft 149 kts 346°
2026-04-29 15:22 57.83096 -6.00709 8142 ft 157 kts 346°
2026-04-29 15:23 57.84149 -6.01204 8055 ft 153 kts 346°
2026-04-29 15:23 57.85175 -6.01676 7940 ft 153 kts 346°
2026-04-29 15:23 57.86216 -6.02157 7803 ft 154 kts 346°
2026-04-29 15:23 57.87248 -6.02634 7704 ft 152 kts 346°
2026-04-29 15:24 57.88277 -6.03110 7585 ft 152 kts 346°
2026-04-29 15:24 57.89305 -6.03586 7475 ft 152 kts 346°
2026-04-29 15:24 57.90337 -6.04065 7313 ft 154 kts 345°
2026-04-29 15:24 57.91391 -6.04556 7122 ft 158 kts 345°
2026-04-29 15:25 57.92279 -6.04974 7010 ft 157 kts 345°
2026-04-29 15:25 57.93337 -6.05487 6782 ft 161 kts 345°
2026-04-29 15:25 57.94414 -6.05989 6650 ft 157 kts 346°
2026-04-29 15:25 57.95479 -6.06472 6467 ft 158 kts 345°
2026-04-29 15:26 57.96546 -6.06960 6304 ft 157 kts 345°
2026-04-29 15:26 57.97607 -6.07451 6140 ft 157 kts 345°
2026-04-29 15:26 57.98659 -6.07940 5999 ft 155 kts 345°
2026-04-29 15:26 57.99706 -6.08427 5849 ft 155 kts 345°
2026-04-29 15:27 58.00737 -6.08909 5710 ft 154 kts 345°
2026-04-29 15:27 58.01773 -6.09395 5563 ft 153 kts 345°
2026-04-29 15:27 58.02807 -6.09883 5418 ft 153 kts 345°
2026-04-29 15:27 58.03757 -6.10744 5183 ft 157 kts 313°
2026-04-29 15:28 58.04282 -6.12504 5004 ft 150 kts 287°
2026-04-29 15:28 58.04531 -6.13703 4944 ft 146 kts 287°
2026-04-29 15:28 58.05025 -6.16112 4594 ft 151 kts 286°
2026-04-29 15:28 58.05390 -6.17924 4461 ft 145 kts 286°
2026-04-29 15:29 58.05745 -6.19688 4249 ft 147 kts 286°
2026-04-29 15:29 58.06462 -6.23294 3833 ft 147 kts 286°
2026-04-29 15:30 58.07165 -6.26887 3412 ft 145 kts 286°
2026-04-29 15:30 58.07512 -6.28673 3198 ft 145 kts 285°
2026-04-29 15:30 58.07871 -6.30451 2957 ft 145 kts 292°
2026-04-29 15:30 58.08506 -6.31968 2697 ft 148 kts 314°
2026-04-29 15:31 58.09425 -6.32768 2391 ft 153 kts 348°
2026-04-29 15:31 58.10457 -6.33058 2229 ft 146 kts 351°
2026-04-29 15:31 58.11452 -6.33319 2037 ft 142 kts 350°
2026-04-29 15:31 58.12420 -6.33433 1896 ft 137 kts
2026-04-29 15:32 58.13355 -6.33066 1707 ft 133 kts 12°
2026-04-29 15:32 58.14255 -6.32665 1497 ft 131 kts 13°
2026-04-29 15:32 58.15150 -6.32296 1258 ft 131 kts
2026-04-29 15:32 58.15989 -6.32332 1058 ft 117 kts 356°
2026-04-29 15:33 58.16780 -6.32362 741 ft 113 kts 356°
2026-04-29 15:33 58.17519 -6.32617 500 ft 105 kts 349°
2026-04-29 15:33 58.18208 -6.32909 379 ft 101 kts 358°
2026-04-29 15:33 58.18884 -6.32958 307 ft 91 kts
2026-04-29 15:34 58.19467 -6.32822 253 ft 80 kts 11°
2026-04-29 15:34 58.19993 -6.32820 182 ft 70 kts
2026-04-29 15:34 58.20449 -6.32898 72 ft 63 kts
2026-04-29 15:34 58.20826 -6.32970 25 ft 46 kts 359°
2026-04-29 15:35 58.21063 -6.33011 22 ft 29 kts 352°
2026-04-29 15:35 58.21250 -6.33043 17 ft 26 kts 357°
2026-04-29 15:35 58.21375 -6.33061 19 ft 9 kts 22°
2026-04-29 15:35 58.21415 -6.32954 17 ft 12 kts 59°
2026-04-29 15:36 58.21457 -6.32818 17 ft 11 kts 60°
2026-04-29 15:36 58.21488 -6.32714 20 ft 8 kts 60°
2026-04-29 15:36 58.21528 -6.32583 20 ft 14 kts 61°
2026-04-29 15:36 58.21497 -6.32492 21 ft 9 kts 149°
2026-04-29 15:37 58.21446 -6.32416 19 ft 7 kts 87°
2026-04-29 15:37 58.21458 -6.32346 22 ft 0 kts 81°
2026-04-29 15:37 58.21460 -6.32323 22 ft 6 kts 81°
2026-04-29 15:37 58.21465 -6.32235 24 ft 7 kts 84°
2026-04-29 15:38 58.21465 -6.32131 25 ft 5 kts 155°
2026-04-29 15:38 58.21433 -6.32112 26 ft 0 kts 181°